createdAt,value
2018-12-27T00:02:08.528Z,8.90
2018-12-27T00:04:40.222Z,8.97
2018-12-27T00:07:11.836Z,7.97
2018-12-27T00:09:43.442Z,6.77
2018-12-27T00:12:17.137Z,6.63
2018-12-27T00:14:54.877Z,6.27
2018-12-27T00:17:26.553Z,4.80
2018-12-27T00:19:58.106Z,6.53
2018-12-27T00:22:29.751Z,6.23
2018-12-27T00:25:04.847Z,5.60
2018-12-27T00:27:41.787Z,6.90
2018-12-27T00:30:13.854Z,5.50
2018-12-27T00:32:45.921Z,5.27
2018-12-27T00:35:18.107Z,5.93
2018-12-27T00:37:50.167Z,6.27
2018-12-27T00:40:22.236Z,5.70
2018-12-27T00:42:54.303Z,6.33
2018-12-27T00:45:26.387Z,6.60
2018-12-27T00:47:58.449Z,5.33
2018-12-27T00:50:30.495Z,6.00
2018-12-27T00:53:02.587Z,4.77
2018-12-27T00:55:34.682Z,4.53
2018-12-27T00:58:06.806Z,5.80
2018-12-27T01:00:38.855Z,5.43
2018-12-27T01:03:11.549Z,5.33
2018-12-27T01:05:43.674Z,4.87
2018-12-27T01:08:15.731Z,3.87
2018-12-27T01:10:47.805Z,4.33
2018-12-27T01:13:19.873Z,4.40
2018-12-27T01:15:51.945Z,4.17
2018-12-27T01:18:24.020Z,5.90
2018-12-27T01:20:56.111Z,5.97
2018-12-27T01:23:28.177Z,3.90
2018-12-27T01:26:00.250Z,5.23
2018-12-27T01:28:32.517Z,5.03
2018-12-27T01:31:04.590Z,4.80
2018-12-27T01:33:36.759Z,4.17
2018-12-27T01:36:08.850Z,4.60
2018-12-27T01:38:40.919Z,5.60
2018-12-27T01:41:12.993Z,5.10
2018-12-27T01:43:45.045Z,5.63
2018-12-27T01:46:17.105Z,4.00
2018-12-27T01:48:49.189Z,4.23
2018-12-27T01:51:21.261Z,3.77
2018-12-27T01:53:53.342Z,4.87
2018-12-27T01:56:25.782Z,5.03
2018-12-27T01:58:57.853Z,4.83
2018-12-27T02:01:30.056Z,4.73
2018-12-27T02:04:02.114Z,3.80
2018-12-27T02:06:34.233Z,4.37
2018-12-27T02:09:06.421Z,5.63
2018-12-27T02:11:38.501Z,5.63
2018-12-27T02:14:10.725Z,4.87
2018-12-27T02:16:42.821Z,5.17
2018-12-27T02:19:14.910Z,4.93
2018-12-27T02:21:46.975Z,5.60
2018-12-27T02:24:19.077Z,4.93
2018-12-27T02:26:51.138Z,4.97
2018-12-27T02:29:23.195Z,4.53
2018-12-27T02:31:55.270Z,6.47
2018-12-27T02:34:27.338Z,4.87
2018-12-27T02:36:59.538Z,7.13
2018-12-27T02:39:31.593Z,7.60
2018-12-27T02:42:03.654Z,8.30
2018-12-27T02:44:35.781Z,9.30
2018-12-27T02:47:07.851Z,8.57
2018-12-27T02:49:39.922Z,10.70
2018-12-27T02:52:11.985Z,9.47
2018-12-27T02:54:44.049Z,12.97
2018-12-27T02:57:16.123Z,10.43
2018-12-27T02:59:48.217Z,13.73
2018-12-27T03:02:20.291Z,13.60
2018-12-27T03:04:52.371Z,13.57
2018-12-27T03:07:24.458Z,11.97
2018-12-27T03:09:57.800Z,13.83
2018-12-27T03:12:29.828Z,12.27
2018-12-27T03:15:01.920Z,13.23
2018-12-27T03:17:34.077Z,11.50
2018-12-27T03:20:06.288Z,12.33
2018-12-27T03:22:38.380Z,13.73
2018-12-27T03:25:10.553Z,14.57
2018-12-27T03:27:42.653Z,11.80
2018-12-27T03:30:14.750Z,13.20
2018-12-27T03:32:46.817Z,12.03
2018-12-27T03:35:18.883Z,13.90
2018-12-27T03:37:51.125Z,13.33
2018-12-27T03:40:23.278Z,16.70
2018-12-27T03:42:55.381Z,13.43
2018-12-27T03:45:27.569Z,14.40
2018-12-27T03:47:59.722Z,14.10
2018-12-27T03:50:31.770Z,15.97
2018-12-27T03:53:03.875Z,15.17
2018-12-27T03:55:35.993Z,18.13
2018-12-27T03:58:08.375Z,17.43
2018-12-27T04:00:40.543Z,17.30
2018-12-27T04:03:12.624Z,17.93
2018-12-27T04:05:44.739Z,17.40
2018-12-27T04:08:16.797Z,16.93
2018-12-27T04:10:48.928Z,17.10
2018-12-27T04:13:21.005Z,15.17
2018-12-27T04:15:52.670Z,16.83
2018-12-27T04:18:24.249Z,18.37
2018-12-27T04:20:55.812Z,17.40
2018-12-27T04:23:27.444Z,16.43
2018-12-27T04:25:59.051Z,17.43
2018-12-27T04:28:30.663Z,14.80
2018-12-27T04:31:02.444Z,14.20
2018-12-27T04:33:34.167Z,17.53
2018-12-27T04:36:05.722Z,17.17
2018-12-27T04:38:37.333Z,20.07
2018-12-27T04:41:08.947Z,13.77
2018-12-27T04:43:40.539Z,18.43
2018-12-27T04:46:12.106Z,15.37
2018-12-27T04:48:43.710Z,15.10
2018-12-27T04:51:15.265Z,15.13
2018-12-27T04:53:46.829Z,16.90
2018-12-27T04:56:18.405Z,15.30
2018-12-27T04:58:49.994Z,15.83
2018-12-27T05:01:21.566Z,18.20
2018-12-27T05:03:53.128Z,17.93
2018-12-27T05:06:24.713Z,16.33
2018-12-27T05:08:56.381Z,16.63
2018-12-27T05:11:28.067Z,17.57
2018-12-27T05:13:59.699Z,15.70
2018-12-27T05:16:31.297Z,18.23
2018-12-27T05:19:02.898Z,21.67
2018-12-27T05:21:34.507Z,14.33
2018-12-27T05:24:06.135Z,17.47
2018-12-27T05:26:37.922Z,18.43
2018-12-27T05:29:09.550Z,17.27
2018-12-27T05:31:41.148Z,20.27
2018-12-27T05:34:12.751Z,16.77
2018-12-27T05:36:44.321Z,16.60
2018-12-27T05:39:15.926Z,21.10
2018-12-27T05:41:47.503Z,17.37
2018-12-27T05:44:19.057Z,20.17
2018-12-27T05:46:52.049Z,20.10
2018-12-27T05:49:23.628Z,16.63
2018-12-27T05:51:55.204Z,19.97
2018-12-27T05:54:26.780Z,15.57
2018-12-27T05:56:58.373Z,20.00
2018-12-27T05:59:29.947Z,19.17
2018-12-27T06:02:01.573Z,16.57
2018-12-27T06:04:33.999Z,18.13
2018-12-27T06:07:05.870Z,19.93
2018-12-27T06:09:37.496Z,20.93
2018-12-27T06:12:09.143Z,20.13
2018-12-27T06:14:42.204Z,20.77
2018-12-27T06:17:13.810Z,21.20
2018-12-27T06:19:45.423Z,25.47
2018-12-27T06:22:17.036Z,21.60
2018-12-27T06:24:48.801Z,22.27
2018-12-27T06:27:20.469Z,20.57
2018-12-27T06:29:52.047Z,19.33
2018-12-27T06:32:23.708Z,22.90
2018-12-27T06:34:55.305Z,25.40
2018-12-27T06:37:26.967Z,20.67
2018-12-27T06:39:58.529Z,21.40
2018-12-27T06:42:30.116Z,25.10
2018-12-27T06:45:01.724Z,24.83
2018-12-27T06:47:33.802Z,21.90
2018-12-27T06:50:05.973Z,23.77
2018-12-27T06:52:37.640Z,23.63
2018-12-27T06:55:09.968Z,23.40
2018-12-27T06:57:42.236Z,25.50
2018-12-27T07:00:15.064Z,20.97
2018-12-27T07:02:46.720Z,25.47
2018-12-27T07:05:19.357Z,20.77
2018-12-27T07:07:50.938Z,23.67
2018-12-27T07:10:22.621Z,20.67
2018-12-27T07:12:54.265Z,21.47
2018-12-27T07:15:25.884Z,26.03
2018-12-27T07:17:57.459Z,24.50
2018-12-27T07:20:29.147Z,26.63
2018-12-27T07:23:00.737Z,23.00
2018-12-27T07:25:32.355Z,24.87
2018-12-27T07:28:04.034Z,24.03
2018-12-27T07:30:35.771Z,21.67
2018-12-27T07:33:07.351Z,25.20
2018-12-27T07:35:38.952Z,25.77
2018-12-27T07:38:10.597Z,27.77
2018-12-27T07:40:42.318Z,28.07
2018-12-27T07:43:13.918Z,28.70
2018-12-27T07:45:45.591Z,30.50
2018-12-27T07:48:17.244Z,29.50
2018-12-27T07:50:48.840Z,29.17
2018-12-27T07:53:20.437Z,27.97
2018-12-27T07:55:52.492Z,28.93
2018-12-27T07:58:24.090Z,28.00
2018-12-27T08:00:56.119Z,27.77
2018-12-27T08:03:27.968Z,27.83
2018-12-27T08:05:59.583Z,25.37
2018-12-27T08:08:31.226Z,26.40
2018-12-27T08:11:03.735Z,26.30
2018-12-27T08:13:35.368Z,26.77
2018-12-27T08:16:07.013Z,25.20
2018-12-27T08:18:38.659Z,25.57
2018-12-27T08:21:10.562Z,23.57
2018-12-27T08:23:43.990Z,24.50
2018-12-27T08:26:15.952Z,21.17
2018-12-27T08:28:47.736Z,25.37
2018-12-27T08:31:19.315Z,21.63
2018-12-27T08:33:50.914Z,21.47
2018-12-27T08:36:22.622Z,23.17
2018-12-27T08:38:54.226Z,22.93
2018-12-27T08:41:25.791Z,20.10
2018-12-27T08:43:57.487Z,19.53
2018-12-27T08:46:29.109Z,23.27
2018-12-27T08:49:00.839Z,21.47
2018-12-27T08:51:32.492Z,25.30
2018-12-27T08:54:04.060Z,22.20
2018-12-27T08:56:35.882Z,24.70
2018-12-27T08:59:07.450Z,24.80
2018-12-27T09:01:40.769Z,23.50
2018-12-27T09:04:12.594Z,19.93
2018-12-27T09:06:44.337Z,21.23
2018-12-27T09:09:15.949Z,23.60
2018-12-27T09:11:47.654Z,24.77
2018-12-27T09:14:19.279Z,24.80
2018-12-27T09:16:50.873Z,27.73
2018-12-27T09:19:22.513Z,23.00
2018-12-27T09:21:54.129Z,27.77
2018-12-27T09:24:26.189Z,26.60
2018-12-27T09:26:57.963Z,26.80
2018-12-27T09:29:29.588Z,27.10
2018-12-27T09:32:01.221Z,26.73
2018-12-27T09:34:33.132Z,26.40
2018-12-27T09:37:04.920Z,23.83
2018-12-27T09:39:36.636Z,27.90
2018-12-27T09:42:08.392Z,26.23
2018-12-27T09:44:40.088Z,28.27
2018-12-27T09:47:11.755Z,27.20
2018-12-27T09:49:43.433Z,24.97
2018-12-27T09:52:15.384Z,27.17
2018-12-27T09:54:46.994Z,25.13
2018-12-27T09:57:18.643Z,27.13
2018-12-27T09:59:50.309Z,29.13
2018-12-27T10:02:22.018Z,27.80
2018-12-27T10:04:53.680Z,26.70
2018-12-27T10:07:26.400Z,30.17
2018-12-27T10:09:58.004Z,28.50
2018-12-27T10:12:29.610Z,29.20
2018-12-27T10:15:01.213Z,28.10
2018-12-27T10:17:32.953Z,29.07
2018-12-27T10:20:04.734Z,25.83
2018-12-27T10:22:36.437Z,27.30
2018-12-27T10:25:08.313Z,27.63
2018-12-27T10:27:40.082Z,22.30
2018-12-27T10:30:11.945Z,26.23
2018-12-27T10:32:43.673Z,26.40
2018-12-27T10:35:15.376Z,28.90
2018-12-27T10:37:47.171Z,25.77
2018-12-27T10:40:18.817Z,23.63
2018-12-27T10:42:50.521Z,23.07
2018-12-27T10:45:22.454Z,23.90
2018-12-27T10:47:54.098Z,23.10
2018-12-27T10:50:25.910Z,22.93
2018-12-27T10:52:57.633Z,24.03
2018-12-27T10:55:29.242Z,21.57
2018-12-27T10:58:00.910Z,23.93
2018-12-27T11:00:32.675Z,30.73
2018-12-27T11:03:04.430Z,26.00
2018-12-27T11:05:36.215Z,28.47
2018-12-27T11:08:07.979Z,24.80
2018-12-27T11:10:39.657Z,25.73
2018-12-27T11:13:11.401Z,29.67
2018-12-27T11:15:43.191Z,23.73
2018-12-27T11:18:15.900Z,28.13
2018-12-27T11:20:47.563Z,24.90
2018-12-27T11:23:19.164Z,25.73
2018-12-27T11:25:50.948Z,27.70
2018-12-27T11:28:22.775Z,23.83
2018-12-27T11:30:54.647Z,24.00
2018-12-27T11:33:26.275Z,25.73
2018-12-27T11:35:57.926Z,21.40
2018-12-27T11:38:29.543Z,22.70
2018-12-27T11:41:01.464Z,24.33
2018-12-27T11:43:33.155Z,26.00
2018-12-27T11:46:04.867Z,23.90
2018-12-27T11:48:37.318Z,22.30
2018-12-27T11:51:09.275Z,20.90
2018-12-27T11:53:41.020Z,21.23
2018-12-27T11:56:12.631Z,20.37
2018-12-27T11:58:47.258Z,22.63
2018-12-27T12:01:20.847Z,20.73
2018-12-27T12:03:52.479Z,50.83
2018-12-27T12:06:24.166Z,26.10
2018-12-27T12:08:55.834Z,21.77
2018-12-27T12:11:27.637Z,20.40
2018-12-27T12:14:00.475Z,19.93
2018-12-27T12:16:32.207Z,22.53
2018-12-27T12:19:03.972Z,21.47
2018-12-27T12:22:20.005Z,19.53
2018-12-27T12:24:51.804Z,17.70
2018-12-27T12:27:23.405Z,19.47
2018-12-27T12:29:55.067Z,20.20
2018-12-27T12:32:26.695Z,20.47
2018-12-27T12:34:58.387Z,18.40
2018-12-27T12:37:30.178Z,19.27
2018-12-27T12:40:02.709Z,16.37
2018-12-27T12:42:35.802Z,18.83
2018-12-27T12:45:12.421Z,16.53
2018-12-27T12:47:44.096Z,16.10
2018-12-27T12:50:15.801Z,18.10
2018-12-27T12:52:47.492Z,16.13
2018-12-27T12:55:19.147Z,16.50
2018-12-27T12:57:51.589Z,14.10
2018-12-27T13:00:23.243Z,15.37
2018-12-27T13:02:54.938Z,14.87
2018-12-27T13:05:26.793Z,16.87
2018-12-27T13:07:58.616Z,16.43
2018-12-27T13:10:30.221Z,18.07
2018-12-27T13:13:01.993Z,18.63
2018-12-27T13:15:33.594Z,16.17
2018-12-27T13:18:05.405Z,18.37
2018-12-27T13:20:37.366Z,15.50
2018-12-27T13:23:10.207Z,18.07
2018-12-27T13:25:41.843Z,16.50
2018-12-27T13:28:13.512Z,16.20
2018-12-27T13:30:46.183Z,16.87
2018-12-27T13:33:17.864Z,16.40
2018-12-27T13:35:49.486Z,17.77
2018-12-27T13:38:21.090Z,19.47
2018-12-27T13:40:52.825Z,17.00
2018-12-27T13:46:31.251Z,19.33
2018-12-27T13:49:03.899Z,17.53
2018-12-27T13:51:35.658Z,18.03
2018-12-27T13:54:07.240Z,18.77
2018-12-27T13:56:38.842Z,18.97
2018-12-27T13:59:10.422Z,18.20
2018-12-27T14:01:42.080Z,17.43
2018-12-27T14:04:13.794Z,18.20
2018-12-27T14:06:45.391Z,21.43
2018-12-27T14:09:17.021Z,19.23
2018-12-27T14:11:51.929Z,20.20
2018-12-27T14:14:23.558Z,16.27
2018-12-27T14:16:59.672Z,19.77
2018-12-27T14:19:31.445Z,17.67
2018-12-27T14:22:03.157Z,16.10
2018-12-27T14:24:35.018Z,16.63
2018-12-27T14:27:06.841Z,18.00
2018-12-27T14:29:38.454Z,15.63
2018-12-27T14:32:10.088Z,16.13
2018-12-27T14:34:41.804Z,15.57
2018-12-27T14:37:16.212Z,19.37
2018-12-27T14:39:49.423Z,19.07
2018-12-27T14:42:24.169Z,17.53
2018-12-27T14:44:55.765Z,20.73
2018-12-27T14:51:46.816Z,22.50
2018-12-27T14:54:24.646Z,21.47
2018-12-27T14:56:56.362Z,18.63
2018-12-27T14:59:28.239Z,21.60
2018-12-27T15:01:59.960Z,19.77
2018-12-27T15:04:38.242Z,20.93
2018-12-27T15:07:08.041Z,18.30
2018-12-27T15:09:39.886Z,19.53
2018-12-27T15:12:12.793Z,19.47
2018-12-27T15:14:44.427Z,15.90
2018-12-27T15:17:17.904Z,22.77
2018-12-27T15:19:51.591Z,21.20
2018-12-27T15:22:24.878Z,21.57
2018-12-27T15:25:05.995Z,20.20
2018-12-27T15:27:37.918Z,21.87
2018-12-27T15:30:09.573Z,22.53
2018-12-27T15:32:41.428Z,21.90
2018-12-27T15:35:14.501Z,20.33
2018-12-27T15:37:46.312Z,20.00
2018-12-27T15:40:18.056Z,22.00
2018-12-27T15:42:50.965Z,23.40
2018-12-27T15:45:22.826Z,24.17
2018-12-27T15:47:54.423Z,22.97
2018-12-27T15:50:26.064Z,21.97
2018-12-27T15:52:57.895Z,21.30
2018-12-27T15:55:29.756Z,19.47
2018-12-27T15:58:01.540Z,22.83
2018-12-27T16:00:34.753Z,18.57
2018-12-27T16:03:08.638Z,24.30
2018-12-27T16:05:43.995Z,19.83
2018-12-27T16:08:15.979Z,22.53
2018-12-27T16:10:49.536Z,21.90
2018-12-27T16:13:21.503Z,20.93
2018-12-27T16:15:53.400Z,27.33
2018-12-27T16:18:26.358Z,21.97
2018-12-27T16:20:58.145Z,24.77
2018-12-27T16:23:30.064Z,19.53
2018-12-27T16:26:01.751Z,17.77
2018-12-27T16:28:37.505Z,22.07
2018-12-27T16:31:09.558Z,19.87
2018-12-27T16:33:43.767Z,18.97
2018-12-27T16:36:16.248Z,19.23
2018-12-27T16:38:49.510Z,19.23
2018-12-27T16:41:21.261Z,17.10
2018-12-27T16:43:54.124Z,16.07
2018-12-27T16:46:28.550Z,16.30
2018-12-27T16:49:00.482Z,17.67
2018-12-27T16:51:32.657Z,14.43
2018-12-27T16:56:45.352Z,16.90
2018-12-27T16:59:22.332Z,16.57
2018-12-27T17:01:54.215Z,17.87
2018-12-27T17:04:25.980Z,14.63
2018-12-27T17:06:57.812Z,16.47
2018-12-27T17:09:29.526Z,15.10
2018-12-27T17:12:01.353Z,13.30
2018-12-27T17:14:35.072Z,15.73
2018-12-27T17:17:06.858Z,14.07
2018-12-27T17:19:39.023Z,14.53
2018-12-27T17:22:10.885Z,14.70
2018-12-27T17:24:42.829Z,14.83
2018-12-27T17:27:14.540Z,13.93
2018-12-27T17:29:46.418Z,15.13
2018-12-27T17:32:18.936Z,17.80
2018-12-27T17:34:53.240Z,15.80
2018-12-27T17:37:25.701Z,15.20
2018-12-27T17:40:09.602Z,14.23
2018-12-27T17:42:47.316Z,15.33
2018-12-27T17:45:19.337Z,16.43
2018-12-27T17:47:51.242Z,15.77
2018-12-27T17:50:23.332Z,17.00
2018-12-27T17:52:54.940Z,15.17
2018-12-27T17:55:26.765Z,12.23
2018-12-27T17:57:58.677Z,16.50
2018-12-27T18:00:30.380Z,13.13
2018-12-27T18:03:02.128Z,13.83
2018-12-27T18:05:33.855Z,15.53
2018-12-27T18:08:05.640Z,14.53
2018-12-27T18:10:37.395Z,16.73
2018-12-27T18:13:09.090Z,16.37
2018-12-27T18:15:45.214Z,16.83
2018-12-27T18:18:21.912Z,18.77
2018-12-27T18:20:54.981Z,16.63
2018-12-27T18:23:29.159Z,15.40
2018-12-27T18:26:03.632Z,14.10
2018-12-27T18:28:35.756Z,14.10
2018-12-27T18:31:08.228Z,15.00
2018-12-27T18:33:41.482Z,14.87
2018-12-27T18:36:14.222Z,16.87
2018-12-27T18:38:52.489Z,17.10
2018-12-27T18:42:06.363Z,15.50
2018-12-27T18:48:33.471Z,15.57
2018-12-27T18:58:18.552Z,20.33
2018-12-27T19:00:52.235Z,16.10
2018-12-27T19:11:28.626Z,17.33
2018-12-27T19:14:03.069Z,12.40
2018-12-27T19:26:13.176Z,13.47
2018-12-27T19:28:46.531Z,13.13
2018-12-27T19:31:18.845Z,12.43
2018-12-27T19:33:50.568Z,14.87
2018-12-27T19:36:22.428Z,13.97
2018-12-27T19:39:02.701Z,13.90
2018-12-27T19:41:37.799Z,15.27
2018-12-27T19:44:09.827Z,12.80
2018-12-27T19:46:48.535Z,13.47
2018-12-27T19:49:20.243Z,14.47
2018-12-27T19:51:51.983Z,11.87
2018-12-27T19:54:31.971Z,14.17
2018-12-27T19:57:04.860Z,12.27
2018-12-27T19:59:36.796Z,13.13
2018-12-27T20:02:12.851Z,14.37
2018-12-27T20:04:48.442Z,13.23
2018-12-27T20:07:47.971Z,15.93
2018-12-27T20:10:18.540Z,13.53
2018-12-27T20:16:38.469Z,14.07
2018-12-27T20:19:10.465Z,16.10
2018-12-27T20:21:48.827Z,19.13
2018-12-27T20:24:23.566Z,15.40
2018-12-27T20:27:18.042Z,17.43
2018-12-27T20:29:58.887Z,14.33
2018-12-27T20:33:03.860Z,15.53
2018-12-27T20:35:35.760Z,16.73
2018-12-27T20:38:31.944Z,17.97
2018-12-27T20:41:40.453Z,14.13
2018-12-27T20:44:15.304Z,13.90
2018-12-27T20:46:50.184Z,15.60
2018-12-27T20:49:37.460Z,14.90
2018-12-27T20:52:16.734Z,18.57
2018-12-27T20:54:48.473Z,14.43
2018-12-27T20:57:20.186Z,16.33
2018-12-27T20:59:51.779Z,13.63
2018-12-27T21:02:23.376Z,12.87
2018-12-27T21:04:55.156Z,15.07
2018-12-27T21:07:26.777Z,15.33
2018-12-27T21:09:59.240Z,16.37
2018-12-27T21:12:31.180Z,14.40
2018-12-27T21:15:03.004Z,15.67
2018-12-27T21:17:35.472Z,15.73
2018-12-27T21:20:09.578Z,13.00
2018-12-27T21:22:41.760Z,15.10
2018-12-27T21:25:18.493Z,13.90
2018-12-27T21:27:51.925Z,15.20
2018-12-27T21:30:23.631Z,15.40
2018-12-27T21:33:25.227Z,13.23
2018-12-27T21:35:49.997Z,11.77
2018-12-27T21:38:22.057Z,13.43
2018-12-27T21:40:53.731Z,13.10
2018-12-27T21:43:34.456Z,13.27
2018-12-27T21:46:06.463Z,13.97
2018-12-27T21:48:38.151Z,12.63
2018-12-27T21:51:11.829Z,14.97
2018-12-27T21:53:44.919Z,10.17
2018-12-27T21:56:19.766Z,12.37
2018-12-27T21:58:52.625Z,11.13
2018-12-27T22:01:24.718Z,10.70
2018-12-27T22:03:58.807Z,11.73
2018-12-27T22:06:41.373Z,12.20
2018-12-27T22:09:13.464Z,13.10
2018-12-27T22:11:45.158Z,13.47
2018-12-27T22:14:16.850Z,17.20
2018-12-27T22:16:48.543Z,18.57
2018-12-27T22:19:20.332Z,13.83
2018-12-27T22:21:53.165Z,14.40
2018-12-27T22:24:25.576Z,15.40
2018-12-27T22:26:57.312Z,13.77
2018-12-27T22:29:29.174Z,13.00
2018-12-27T22:32:00.921Z,11.30
2018-12-27T22:34:32.549Z,10.00
2018-12-27T22:37:05.282Z,10.23
2018-12-27T22:39:37.729Z,12.73
2018-12-27T22:42:09.710Z,8.90
2018-12-27T22:44:41.680Z,14.40
2018-12-27T22:47:13.648Z,11.57
2018-12-27T22:49:55.088Z,12.13
2018-12-27T22:52:26.767Z,10.47
2018-12-27T22:54:58.683Z,10.73
2018-12-27T22:57:30.684Z,13.07
2018-12-27T23:00:02.574Z,9.40
2018-12-27T23:02:35.997Z,10.00
2018-12-27T23:05:07.837Z,12.93
2018-12-27T23:07:39.550Z,9.97
2018-12-27T23:10:12.953Z,8.30
2018-12-27T23:12:53.245Z,9.30
2018-12-27T23:15:27.247Z,9.83
2018-12-27T23:18:07.058Z,8.57
2018-12-27T23:20:40.969Z,9.60
2018-12-27T23:23:12.619Z,9.50
2018-12-27T23:25:44.273Z,8.47
2018-12-27T23:28:15.948Z,7.80
2018-12-27T23:30:47.604Z,9.03
2018-12-27T23:33:19.214Z,6.90
2018-12-27T23:35:50.849Z,9.33
2018-12-27T23:38:22.617Z,6.73
2018-12-27T23:40:54.276Z,10.33
2018-12-27T23:43:25.928Z,10.70
2018-12-27T23:45:57.735Z,8.17
2018-12-27T23:48:29.474Z,6.97
2018-12-27T23:51:01.066Z,7.20
2018-12-27T23:53:32.746Z,7.03
2018-12-27T23:56:04.438Z,7.60
2018-12-27T23:58:35.997Z,7.63
